createdAt,value
2019-01-19T00:00:04.447Z,8.95
2019-01-19T00:02:40.155Z,10.65
2019-01-19T00:05:39.595Z,9.28
2019-01-19T00:08:20.798Z,9.63
2019-01-19T00:11:15.804Z,10.50
2019-01-19T00:13:55.602Z,9.03
2019-01-19T00:16:37.367Z,11.48
2019-01-19T00:19:32.437Z,10.80
2019-01-19T00:22:22.835Z,10.60
2019-01-19T00:24:56.753Z,9.28
2019-01-19T00:27:51.806Z,11.83
2019-01-19T00:30:25.875Z,10.08
2019-01-19T00:33:14.553Z,10.53
2019-01-19T00:36:00.434Z,10.90
2019-01-19T00:38:50.714Z,10.08
2019-01-19T00:41:46.799Z,10.82
2019-01-19T00:44:36.594Z,9.33
2019-01-19T00:47:10.915Z,10.05
2019-01-19T00:49:42.074Z,10.15
2019-01-19T00:52:31.002Z,10.38
2019-01-19T00:55:04.971Z,10.78
2019-01-19T00:57:49.155Z,10.23
2019-01-19T01:00:21.927Z,8.48
2019-01-19T01:03:09.562Z,9.20
2019-01-19T01:05:42.365Z,9.20
2019-01-19T01:08:43.274Z,7.70
2019-01-19T01:11:17.196Z,6.83
2019-01-19T01:14:09.713Z,8.30
2019-01-19T01:16:57.485Z,9.78
2019-01-19T01:19:37.242Z,7.62
2019-01-19T01:22:14.117Z,4.22
2019-01-19T01:25:03.048Z,7.50
2019-01-19T01:27:48.038Z,6.58
2019-01-19T01:30:29.524Z,5.53
2019-01-19T01:33:11.718Z,6.78
2019-01-19T01:35:48.438Z,6.80
2019-01-19T01:38:42.079Z,7.95
2019-01-19T01:41:29.686Z,7.30
2019-01-19T01:44:27.325Z,8.80
2019-01-19T01:47:19.159Z,3.60
2019-01-19T01:49:55.842Z,7.90
2019-01-19T01:52:46.318Z,6.33
2019-01-19T01:55:20.241Z,6.17
2019-01-19T01:57:55.154Z,8.55
2019-01-19T02:00:37.646Z,7.70
2019-01-19T02:03:44.158Z,5.12
2019-01-19T02:06:24.554Z,7.80
2019-01-19T02:09:15.958Z,5.42
2019-01-19T02:12:08.920Z,8.35
2019-01-19T02:14:48.445Z,8.38
2019-01-19T02:17:38.723Z,6.08
2019-01-19T02:20:28.714Z,5.60
2019-01-19T02:23:07.564Z,5.40
2019-01-19T02:25:57.750Z,4.53
2019-01-19T02:28:54.353Z,7.30
2019-01-19T02:31:34.249Z,6.78
2019-01-19T02:34:12.436Z,6.58
2019-01-19T02:36:55.160Z,7.53
2019-01-19T02:39:45.558Z,4.17
2019-01-19T02:42:28.602Z,5.97
2019-01-19T02:45:11.485Z,3.77
2019-01-19T02:47:48.435Z,6.40
2019-01-19T02:50:24.127Z,6.87
2019-01-19T02:53:19.039Z,7.78
2019-01-19T02:55:55.278Z,4.50
2019-01-19T02:58:40.554Z,13.70
2019-01-19T03:01:32.846Z,12.75
2019-01-19T03:04:20.606Z,7.35
2019-01-19T03:07:00.526Z,9.15
2019-01-19T03:09:52.406Z,10.53
2019-01-19T03:12:53.283Z,8.38
2019-01-19T03:15:32.798Z,7.95
2019-01-19T03:18:21.807Z,8.48
2019-01-19T03:21:07.486Z,6.58
2019-01-19T03:23:49.007Z,8.53
2019-01-19T03:26:28.518Z,9.60
2019-01-19T03:29:05.079Z,10.82
2019-01-19T03:31:46.616Z,8.40
2019-01-19T03:34:38.038Z,9.58
2019-01-19T03:37:16.358Z,11.30
2019-01-19T03:39:53.886Z,6.62
2019-01-19T03:42:29.518Z,8.50
2019-01-19T03:45:28.806Z,4.90
2019-01-19T03:48:05.398Z,7.17
2019-01-19T03:50:45.246Z,8.80
2019-01-19T03:53:30.406Z,5.62
2019-01-19T03:56:22.162Z,3.30
2019-01-19T03:59:04.558Z,4.10
2019-01-19T04:01:44.008Z,5.03
2019-01-19T04:04:26.811Z,5.83
2019-01-19T04:07:03.645Z,3.75
2019-01-19T04:09:42.319Z,3.25
2019-01-19T04:12:31.167Z,5.17
2019-01-19T04:15:10.478Z,3.70
2019-01-19T04:17:50.045Z,4.95
2019-01-19T04:20:40.318Z,3.58
2019-01-19T04:23:10.046Z,3.22
2019-01-19T04:25:44.449Z,2.50
2019-01-19T04:28:16.526Z,4.65
2019-01-19T04:30:49.541Z,5.72
2019-01-19T04:33:21.000Z,7.12
2019-01-19T04:35:51.729Z,9.33
2019-01-19T04:38:21.486Z,4.65
2019-01-19T04:40:51.247Z,5.58
2019-01-19T04:43:22.038Z,12.55
2019-01-19T04:45:51.769Z,11.55
2019-01-19T04:48:24.158Z,7.30
2019-01-19T04:50:56.439Z,10.18
2019-01-19T04:53:27.206Z,8.90
2019-01-19T04:55:57.980Z,9.95
2019-01-19T04:58:28.800Z,9.00
2019-01-19T05:00:58.478Z,7.03
2019-01-19T05:03:29.247Z,4.42
2019-01-19T05:06:00.038Z,6.58
2019-01-19T05:08:30.847Z,5.35
2019-01-19T05:11:01.682Z,2.72
2019-01-19T05:13:32.410Z,5.42
2019-01-19T05:16:03.204Z,7.85
2019-01-19T05:18:34.566Z,7.62
2019-01-19T05:21:07.558Z,4.53
2019-01-19T05:23:38.560Z,3.85
2019-01-19T05:26:08.850Z,1.55
2019-01-19T05:28:39.679Z,1.65
2019-01-19T05:31:10.486Z,5.30
2019-01-19T05:33:40.238Z,3.05
2019-01-19T05:36:10.998Z,4.47
2019-01-19T05:38:41.704Z,7.67
2019-01-19T05:41:12.560Z,5.30
2019-01-19T05:43:43.322Z,9.10
2019-01-19T05:46:21.217Z,3.17
2019-01-19T05:48:45.447Z,9.43
2019-01-19T05:51:15.203Z,8.65
2019-01-19T05:53:45.918Z,10.70
2019-01-19T05:56:16.606Z,6.17
2019-01-19T05:58:47.357Z,3.45
2019-01-19T06:01:18.199Z,7.42
2019-01-19T06:03:47.959Z,3.52
2019-01-19T06:06:18.998Z,9.78
2019-01-19T06:08:49.806Z,4.50
2019-01-19T06:11:20.726Z,4.33
2019-01-19T06:13:50.446Z,6.42
2019-01-19T06:16:21.318Z,4.62
2019-01-19T06:18:52.598Z,4.17
2019-01-19T06:21:23.598Z,5.70
2019-01-19T06:23:53.359Z,5.00
2019-01-19T06:26:24.129Z,4.15
2019-01-19T06:28:53.842Z,4.67
2019-01-19T06:31:24.607Z,6.42
2019-01-19T06:33:56.006Z,5.85
2019-01-19T06:36:26.795Z,2.55
2019-01-19T06:38:57.606Z,7.47
2019-01-19T06:41:27.399Z,5.92
2019-01-19T06:43:59.678Z,4.45
2019-01-19T06:46:30.527Z,7.75
2019-01-19T06:49:01.278Z,5.30
2019-01-19T06:51:32.115Z,7.85
2019-01-19T06:54:02.079Z,5.12
2019-01-19T06:56:31.714Z,7.75
2019-01-19T06:59:02.507Z,3.17
2019-01-19T07:01:32.318Z,5.42
2019-01-19T07:04:04.484Z,3.02
2019-01-19T07:06:35.314Z,3.02
2019-01-19T07:09:09.238Z,3.60
2019-01-19T07:11:39.874Z,3.83
2019-01-19T07:14:10.602Z,5.58
2019-01-19T07:16:41.379Z,4.50
2019-01-19T07:19:11.209Z,7.62
2019-01-19T07:21:42.081Z,3.15
2019-01-19T07:24:12.880Z,5.05
2019-01-19T07:26:42.564Z,4.20
2019-01-19T07:29:16.318Z,3.65
2019-01-19T07:31:47.126Z,3.33
2019-01-19T07:34:17.883Z,5.35
2019-01-19T07:36:48.748Z,2.65
2019-01-19T07:39:18.518Z,7.33
2019-01-19T07:41:49.245Z,5.12
2019-01-19T07:44:20.086Z,7.87
2019-01-19T07:46:55.960Z,12.78
2019-01-19T07:49:25.763Z,3.92
2019-01-19T07:51:56.566Z,6.03
2019-01-19T07:54:27.338Z,5.67
2019-01-19T07:56:58.179Z,5.55
2019-01-19T07:59:29.045Z,6.35
2019-01-19T08:01:59.807Z,5.72
2019-01-19T08:04:30.567Z,6.33
2019-01-19T08:07:01.255Z,8.80
2019-01-19T08:09:32.854Z,5.50
2019-01-19T08:12:02.715Z,9.80
2019-01-19T08:14:33.480Z,9.58
2019-01-19T08:17:03.207Z,7.45
2019-01-19T08:19:34.011Z,10.55
2019-01-19T08:22:07.001Z,11.40
2019-01-19T08:24:38.118Z,9.98
2019-01-19T08:27:08.926Z,9.10
2019-01-19T08:29:38.683Z,9.30
2019-01-19T08:32:09.446Z,8.03
2019-01-19T08:34:40.807Z,8.73
2019-01-19T08:37:11.562Z,9.20
2019-01-19T08:39:41.320Z,10.78
2019-01-19T08:42:14.440Z,10.28
2019-01-19T08:44:47.335Z,9.58
2019-01-19T08:47:19.210Z,10.35
2019-01-19T08:49:48.995Z,9.30
2019-01-19T08:52:19.794Z,8.75
2019-01-19T08:54:50.601Z,9.03
2019-01-19T08:57:20.476Z,10.40
2019-01-19T08:59:51.322Z,7.42
2019-01-19T09:02:26.684Z,5.85
2019-01-19T09:04:55.764Z,5.50
2019-01-19T09:07:33.857Z,9.08
2019-01-19T09:10:03.802Z,8.45
2019-01-19T09:12:34.727Z,4.35
2019-01-19T09:15:05.440Z,4.10
2019-01-19T09:17:36.282Z,6.28
2019-01-19T09:20:09.350Z,4.35
2019-01-19T09:22:39.169Z,5.45
2019-01-19T09:25:15.890Z,7.95
2019-01-19T09:27:46.767Z,8.23
2019-01-19T09:30:22.686Z,5.20
2019-01-19T09:32:53.643Z,7.70
2019-01-19T09:35:24.974Z,7.45
2019-01-19T09:37:55.798Z,8.13
2019-01-19T09:40:26.642Z,7.20
2019-01-19T09:42:56.323Z,3.67
2019-01-19T09:45:27.778Z,5.65
2019-01-19T09:47:58.642Z,5.55
2019-01-19T09:50:29.398Z,8.68
2019-01-19T09:52:59.607Z,5.65
2019-01-19T09:55:30.363Z,3.90
2019-01-19T09:58:01.729Z,5.17
2019-01-19T10:00:37.603Z,4.50
2019-01-19T10:03:05.438Z,4.97
2019-01-19T10:05:35.237Z,6.12
2019-01-19T10:08:06.007Z,6.83
2019-01-19T10:10:36.768Z,8.65
2019-01-19T10:13:07.568Z,9.63
2019-01-19T10:15:37.358Z,6.35
2019-01-19T10:18:10.198Z,4.72
2019-01-19T10:20:40.007Z,4.78
2019-01-19T10:23:09.883Z,3.83
2019-01-19T10:25:40.734Z,4.78
2019-01-19T10:28:11.483Z,2.58
2019-01-19T10:30:42.273Z,2.40
2019-01-19T10:33:13.064Z,2.72
2019-01-19T10:35:43.927Z,5.47
2019-01-19T10:38:14.798Z,3.75
2019-01-19T10:40:46.078Z,3.70
2019-01-19T10:43:16.526Z,1.85
2019-01-19T10:45:47.319Z,4.58
2019-01-19T10:48:17.047Z,3.98
2019-01-19T10:50:47.835Z,3.85
2019-01-19T10:53:18.643Z,3.33
2019-01-19T10:55:49.518Z,3.35
2019-01-19T10:58:20.286Z,3.35
2019-01-19T11:00:51.079Z,3.40
2019-01-19T11:03:21.923Z,2.45
2019-01-19T11:05:52.764Z,3.85
2019-01-19T11:08:24.116Z,3.05
2019-01-19T11:10:55.054Z,4.17
2019-01-19T11:13:29.000Z,4.60
2019-01-19T11:15:59.746Z,5.40
2019-01-19T11:18:30.565Z,3.75
2019-01-19T11:21:01.415Z,2.50
2019-01-19T11:23:39.535Z,3.33
2019-01-19T11:26:03.802Z,1.92
2019-01-19T11:28:35.314Z,5.40
2019-01-19T11:31:05.806Z,4.85
2019-01-19T11:33:37.113Z,4.12
2019-01-19T11:36:07.955Z,6.55
2019-01-19T11:38:37.726Z,4.45
2019-01-19T11:41:08.492Z,5.15
2019-01-19T11:43:41.313Z,3.62
2019-01-19T11:46:12.131Z,3.70
2019-01-19T11:48:43.642Z,7.42
2019-01-19T11:51:14.120Z,4.70
2019-01-19T11:53:44.885Z,6.12
2019-01-19T11:56:16.326Z,5.53
2019-01-19T11:58:47.691Z,4.20
2019-01-19T12:01:18.518Z,5.33
2019-01-19T12:03:51.958Z,6.85
2019-01-19T12:06:22.742Z,4.17
2019-01-19T12:08:52.438Z,6.83
2019-01-19T12:11:23.238Z,7.72
2019-01-19T12:13:54.526Z,7.70
2019-01-19T12:16:24.206Z,6.35
2019-01-19T12:18:57.412Z,9.50
2019-01-19T12:21:27.875Z,6.42
2019-01-19T12:23:58.702Z,8.68
2019-01-19T12:26:29.612Z,8.30
2019-01-19T12:29:02.892Z,8.78
2019-01-19T12:31:31.969Z,9.10
2019-01-19T12:34:03.209Z,7.60
2019-01-19T12:36:33.996Z,7.22
2019-01-19T12:39:05.082Z,9.63
2019-01-19T12:41:35.829Z,7.03
2019-01-19T12:44:06.046Z,10.63
2019-01-19T12:46:38.378Z,10.78
2019-01-19T12:49:09.242Z,10.55
2019-01-19T12:51:38.975Z,10.88
2019-01-19T12:54:11.689Z,10.88
2019-01-19T12:56:42.195Z,10.03
2019-01-19T12:59:12.963Z,8.93
2019-01-19T13:01:42.713Z,8.85
2019-01-19T13:04:12.525Z,8.65
2019-01-19T13:06:43.562Z,8.00
2019-01-19T13:09:16.918Z,9.65
2019-01-19T13:11:59.514Z,8.03
2019-01-19T13:14:30.557Z,10.28
2019-01-19T13:17:19.514Z,9.93
2019-01-19T13:19:57.715Z,10.48
2019-01-19T13:22:59.234Z,10.45
2019-01-19T13:25:49.953Z,9.78
2019-01-19T13:28:42.668Z,10.43
2019-01-19T13:31:37.723Z,9.58
2019-01-19T13:34:36.676Z,9.10
2019-01-19T13:37:44.956Z,10.80
2019-01-19T13:40:34.127Z,8.80
2019-01-19T13:43:27.274Z,10.30
2019-01-19T13:46:01.207Z,10.80
2019-01-19T13:48:40.919Z,10.20
2019-01-19T13:51:23.527Z,10.25
2019-01-19T13:54:18.755Z,9.70
2019-01-19T13:56:55.401Z,11.35
2019-01-19T13:59:38.092Z,10.55
2019-01-19T14:02:19.451Z,10.70
2019-01-19T14:05:29.353Z,9.30
2019-01-19T14:08:18.594Z,11.18
2019-01-19T14:11:10.363Z,13.60
2019-01-19T14:14:12.594Z,22.90
2019-01-19T14:17:02.683Z,23.70
2019-01-19T14:19:39.322Z,26.33
2019-01-19T14:22:32.477Z,26.68
2019-01-19T14:25:35.906Z,16.40
2019-01-19T14:28:21.448Z,16.45
2019-01-19T14:31:29.975Z,15.80
2019-01-19T14:34:08.274Z,15.53
2019-01-19T14:36:51.234Z,14.05
2019-01-19T14:39:49.154Z,17.25
2019-01-19T14:42:53.554Z,20.77
2019-01-19T14:45:49.379Z,25.45
2019-01-19T14:48:29.117Z,30.65
2019-01-19T14:51:07.555Z,38.70
2019-01-19T14:53:43.477Z,35.15
2019-01-19T14:57:06.355Z,36.70
2019-01-19T14:59:51.088Z,33.18
2019-01-19T15:02:40.640Z,33.05
2019-01-19T15:05:16.998Z,32.98
2019-01-19T15:07:58.353Z,34.20
2019-01-19T15:10:43.138Z,32.95
2019-01-19T15:13:28.478Z,32.03
2019-01-19T15:16:03.034Z,26.70
2019-01-19T15:18:39.127Z,39.90
2019-01-19T15:21:21.525Z,71.20
2019-01-19T15:24:04.276Z,81.42
2019-01-19T15:26:42.354Z,36.15
2019-01-19T15:29:46.378Z,41.50
2019-01-19T15:32:35.287Z,43.95
2019-01-19T15:35:24.115Z,29.27
2019-01-19T15:38:16.036Z,26.30
2019-01-19T15:41:16.926Z,29.52
2019-01-19T15:44:07.327Z,41.02
2019-01-19T15:46:59.635Z,46.45
2019-01-19T15:49:52.768Z,40.63
2019-01-19T15:52:38.683Z,37.25
2019-01-19T15:55:18.366Z,35.52
2019-01-19T15:57:55.159Z,33.25
2019-01-19T16:00:58.317Z,37.60
2019-01-19T16:03:44.202Z,35.43
2019-01-19T16:06:41.478Z,37.25
2019-01-19T16:09:23.162Z,39.63
2019-01-19T16:11:58.881Z,36.48
2019-01-19T16:14:41.207Z,35.70
2019-01-19T16:17:17.715Z,35.83
2019-01-19T16:19:56.844Z,37.83
2019-01-19T16:22:36.639Z,37.08
2019-01-19T16:25:22.479Z,44.27
2019-01-19T16:28:08.355Z,40.80
2019-01-19T16:30:57.240Z,37.53
2019-01-19T16:33:39.925Z,40.48
2019-01-19T16:36:17.039Z,37.95
2019-01-19T16:39:08.527Z,40.78
2019-01-19T16:42:03.403Z,38.50
2019-01-19T16:44:54.194Z,36.45
2019-01-19T16:47:32.439Z,36.05
2019-01-19T16:50:17.476Z,36.33
2019-01-19T16:52:57.139Z,38.45
2019-01-19T16:55:37.036Z,39.30
2019-01-19T16:58:16.879Z,49.30
2019-01-19T17:01:19.355Z,39.10
2019-01-19T17:04:24.602Z,36.70
2019-01-19T17:07:19.874Z,39.83
2019-01-19T17:10:02.760Z,38.38
2019-01-19T17:12:42.760Z,43.10
2019-01-19T17:15:33.928Z,44.98
2019-01-19T17:18:18.931Z,58.87
2019-01-19T17:20:58.717Z,86.57
2019-01-19T17:23:42.401Z,122.78
2019-01-19T17:26:39.020Z,129.20
2019-01-19T17:29:26.642Z,97.17
2019-01-19T17:32:06.474Z,79.80
2019-01-19T17:34:59.718Z,75.60
2019-01-19T17:37:41.480Z,60.08
2019-01-19T17:40:44.163Z,69.62
2019-01-19T17:43:19.759Z,69.55
2019-01-19T17:46:05.875Z,83.12
2019-01-19T17:48:48.803Z,116.97
2019-01-19T17:51:25.562Z,157.80
2019-01-19T17:54:31.013Z,117.50
2019-01-19T17:57:19.939Z,97.88
2019-01-19T17:59:59.567Z,87.25
2019-01-19T18:02:51.714Z,99.28
2019-01-19T18:05:31.444Z,98.42
2019-01-19T18:08:27.817Z,115.08
2019-01-19T18:11:12.728Z,110.60
2019-01-19T18:13:48.233Z,107.95
2019-01-19T18:16:27.966Z,82.20
2019-01-19T18:19:29.258Z,46.37
2019-01-19T18:22:25.880Z,56.30
2019-01-19T18:25:01.675Z,56.92
2019-01-19T18:27:58.047Z,42.23
2019-01-19T18:30:51.808Z,50.10
2019-01-19T18:33:36.834Z,46.13
2019-01-19T18:36:19.801Z,43.78
2019-01-19T18:39:15.126Z,50.40
2019-01-19T18:42:05.439Z,40.25
2019-01-19T18:44:54.515Z,44.70
2019-01-19T18:47:37.727Z,43.68
2019-01-19T18:50:20.641Z,41.83
2019-01-19T18:53:11.562Z,46.37
2019-01-19T18:55:57.641Z,53.92
2019-01-19T18:58:43.638Z,46.35
2019-01-19T19:01:34.239Z,57.70
2019-01-19T19:04:17.320Z,46.98
2019-01-19T19:07:16.837Z,44.58
2019-01-19T19:09:53.719Z,51.30
2019-01-19T19:12:41.486Z,52.95
2019-01-19T19:15:24.490Z,63.10
2019-01-19T19:18:20.888Z,51.70
2019-01-19T19:20:56.278Z,50.17
2019-01-19T19:23:30.286Z,62.70
2019-01-19T19:26:13.247Z,53.17
2019-01-19T19:29:11.481Z,61.18
2019-01-19T19:31:55.847Z,55.17
2019-01-19T19:34:38.766Z,61.30
2019-01-19T19:37:39.882Z,56.77
2019-01-19T19:40:22.639Z,50.52
2019-01-19T19:42:56.647Z,56.30
2019-01-19T19:45:48.276Z,51.53
2019-01-19T19:48:33.887Z,55.58
2019-01-19T19:51:17.702Z,54.23
2019-01-19T19:53:48.610Z,50.45
2019-01-19T19:56:19.841Z,52.20
2019-01-19T19:58:50.689Z,57.65
2019-01-19T20:01:21.599Z,69.62
2019-01-19T20:03:52.423Z,57.75
2019-01-19T20:06:23.320Z,63.52
2019-01-19T20:08:54.239Z,59.18
2019-01-19T20:11:25.118Z,71.97
2019-01-19T20:13:56.008Z,71.47
2019-01-19T20:16:26.840Z,55.15
2019-01-19T20:18:57.839Z,57.75
2019-01-19T20:21:27.711Z,64.27
2019-01-19T20:25:00.718Z,66.33
2019-01-19T20:27:31.533Z,65.65
2019-01-19T20:30:02.529Z,57.13
2019-01-19T20:32:33.503Z,51.95
2019-01-19T20:35:06.004Z,55.75
2019-01-19T20:37:36.850Z,67.50
2019-01-19T20:40:13.889Z,74.12
2019-01-19T20:42:44.647Z,62.85
2019-01-19T20:45:17.722Z,65.45
2019-01-19T20:47:49.279Z,66.60
2019-01-19T20:50:19.118Z,67.20
2019-01-19T20:52:49.886Z,64.40
2019-01-19T20:55:20.686Z,68.70
2019-01-19T20:57:51.523Z,95.53
2019-01-19T21:00:23.159Z,83.20
2019-01-19T21:02:54.037Z,81.37
2019-01-19T21:05:24.838Z,70.22
2019-01-19T21:07:56.447Z,69.15
2019-01-19T21:10:31.673Z,73.87
2019-01-19T21:12:59.246Z,69.67
2019-01-19T21:15:30.158Z,63.70
2019-01-19T21:18:00.922Z,64.03
2019-01-19T21:20:31.878Z,72.35
2019-01-19T21:23:02.650Z,67.12
2019-01-19T21:25:33.440Z,57.20
2019-01-19T21:28:04.927Z,58.85
2019-01-19T21:30:35.827Z,54.45
2019-01-19T21:33:06.840Z,49.67
2019-01-19T21:35:37.687Z,42.03
2019-01-19T21:38:08.438Z,38.02
2019-01-19T21:40:39.381Z,43.75
2019-01-19T21:43:10.206Z,38.55
2019-01-19T21:45:41.082Z,34.33
2019-01-19T21:48:11.848Z,31.90
2019-01-19T21:50:42.561Z,35.90
2019-01-19T21:53:12.326Z,47.70
2019-01-19T21:55:43.166Z,37.48
2019-01-19T21:58:13.920Z,41.83
2019-01-19T22:00:44.758Z,48.02
2019-01-19T22:03:15.528Z,43.30
2019-01-19T22:05:49.866Z,34.43
2019-01-19T22:08:18.806Z,33.65
2019-01-19T22:10:49.842Z,34.35
2019-01-19T22:13:20.634Z,34.92
2019-01-19T22:15:51.954Z,34.48
2019-01-19T22:18:22.771Z,34.67
2019-01-19T22:20:53.717Z,35.50
2019-01-19T22:23:23.446Z,35.73
2019-01-19T22:25:54.209Z,37.50
2019-01-19T22:28:24.959Z,36.95
2019-01-19T22:30:54.760Z,37.15
2019-01-19T22:33:26.042Z,28.38
2019-01-19T22:35:56.889Z,28.30
2019-01-19T22:38:27.811Z,31.40
2019-01-19T22:40:58.579Z,29.02
2019-01-19T22:43:30.000Z,29.07
2019-01-19T22:46:00.756Z,31.68
2019-01-19T22:48:33.038Z,33.83
2019-01-19T22:51:11.043Z,32.58
2019-01-19T22:53:36.295Z,32.88
2019-01-19T22:56:07.038Z,29.50
2019-01-19T22:58:36.808Z,26.48
2019-01-19T23:01:27.321Z,29.77
2019-01-19T23:03:58.118Z,29.40
2019-01-19T23:06:28.904Z,29.75
2019-01-19T23:08:59.807Z,24.63
2019-01-19T23:11:33.970Z,24.57
2019-01-19T23:14:02.327Z,30.50
2019-01-19T23:16:33.126Z,30.43
2019-01-19T23:19:03.886Z,36.05
2019-01-19T23:21:33.758Z,36.05
2019-01-19T23:24:04.605Z,35.33
2019-01-19T23:26:36.203Z,45.73
2019-01-19T23:29:06.994Z,37.03
2019-01-19T23:31:37.830Z,41.28
2019-01-19T23:34:08.602Z,38.67
2019-01-19T23:36:38.350Z,28.47
2019-01-19T23:39:09.678Z,32.95
2019-01-19T23:41:40.446Z,34.48
2019-01-19T23:44:11.326Z,30.48
2019-01-19T23:46:41.689Z,36.95
2019-01-19T23:49:12.438Z,41.30
2019-01-19T23:51:45.442Z,35.35
2019-01-19T23:54:16.220Z,33.98
2019-01-19T23:56:50.086Z,36.60
2019-01-19T23:59:20.851Z,31.15
